Wind from 170 at 10 knots

Air temperature 7.0° C
Visibility: greater than 5.4 NM
Dewpoint 4.0° C
Present weather: Light rain.

Last reported at 2014-Apr-17 09:50 UTC.
Time now 2014-Apr-17 12:31 UTC

Location: N 64°50' E 011°09'.
View on Google Maps.

See reports from other nearby stations

Tides Stations Pressure Air Temp Water Temp Dewpoint Dewpoint depression Visibility Wind Speed Wind Dir Waves Ship positions

  
sailing weather and tide predictions

RORVIK / RYUM weather

date/time (UTC)wind fromknots sea level pressurealtimeterstation pressurevisibilityair tempwater tempwave heightnotes
2014-Apr-17 10:50 160 10 5.4 6.0 Light rain.
2014-Apr-17 09:50 170 10 5.4 7.0 Light rain.
2014-Apr-17 09:20 170 6 5.4 7.0 Light rain.
2014-Apr-17 08:50 140 5 5.4 6.0 Light rain.
2014-Apr-17 08:20 140 6 5.4 6.0 Light rain.
2014-Apr-17 07:50 150 6 5.4 6.0 Light rain.
2014-Apr-17 07:20 150 6 5.4 6.0 Light rain.
2014-Apr-17 06:50 130 5 5.4 5.0 Light rain.
2014-Apr-17 06:20 120 6 4.9 5.0 Light drizzle rain.
2014-Apr-17 05:50 140 6 4.3 5.0 Light rain.
2014-Apr-17 05:20 140 7 4.9 5.0 Light rain.
2014-Apr-17 04:50 190 8 3.2 5.0 Light rain drizzle.
2014-Apr-17 04:20 210 8 2.7 6.0 Light rain drizzle.
2014-Apr-16 21:50 220 17 5.4 6.0 Rain drizzle.
2014-Apr-16 21:20 220 18 5.4 6.0 Rain drizzle.
2014-Apr-16 20:50 220 20 2.2 6.0 Rain drizzle.
2014-Apr-16 20:20 210 18 2.2 6.0 Drizzle rain.
2014-Apr-16 19:50 210 19 2.2 6.0 Rain drizzle.
2014-Apr-16 19:20 210 19 2.7 6.0 Rain drizzle.
2014-Apr-16 18:50 220 20 2.2 6.0 Drizzle rain.
2014-Apr-16 18:20 220 20 1.3 6.0 Drizzle.
2014-Apr-16 17:50 210 23 2.2 6.0 Rain drizzle.
2014-Apr-16 17:20 210 22 1.6 6.0 Drizzle rain.
2014-Apr-16 16:50 210 23 3.2 6.0 Light rain drizzle.
2014-Apr-16 16:20 210 22 5.4 7.0 Rain.
2014-Apr-16 15:20 190 20 5.4 6.0 Rain.
2014-Apr-16 14:50 200 20 5.4 6.0 Rain.
2014-Apr-16 14:20 220 20 5.4 6.0 Rain.
2014-Apr-16 13:20 220 22 5.4 7.0 Light rain.
2014-Apr-16 12:50 180 10 5.4 7.0 Light rain.
2014-Apr-16 12:20 180 8 5.4 7.0 Showers in the vicinity.
2014-Apr-16 11:50 180 12 5.4 7.0 Light rain.
2014-Apr-16 10:50 170 11 5.4 6.0 Showers in the vicinity.
2014-Apr-16 10:20 160 11 5.4 6.0 Showers in the vicinity.
2014-Apr-16 08:50 180 13 5.4 5.0 Light drizzle rain.
2014-Apr-16 07:50 170 11 5.4 5.0 Light drizzle rain.
2014-Apr-16 07:20 170 11 5.4 5.0 Showers in the vicinity.
2014-Apr-16 06:50 170 10 5.4 4.0 Showers in the vicinity.
2014-Apr-16 05:20 190 14 5.4 4.0 Light rain.
2014-Apr-16 04:50 200 14 5.4 4.0 Light rain.
2014-Apr-16 04:20 190 11 5.4 4.0 Light rain.
2014-Apr-15 20:50 230 22 5.4 5.0 Light rain.
2014-Apr-15 20:20 230 20 5.4 5.0 Light rain.
2014-Apr-15 19:50 220 16 2.7 5.0 Light rain drizzle.
2014-Apr-15 19:20 180 12 4.3 3.0 Light rain drizzle.
2014-Apr-15 18:50 180 10 4.3 3.0 Light rain drizzle.
2014-Apr-15 18:20 180 11 3.2 3.0 Light drizzle rain.
2014-Apr-15 17:20 200 10 5.4 4.0 Showers in the vicinity.
2014-Apr-15 16:50 210 10 5.4 4.0 Light rain.
2014-Apr-15 15:50 230 9 5.4 4.0
2014-Apr-15 15:20 230 10 5.4 5.0
2014-Apr-15 14:50 250 10 5.4 5.0
2014-Apr-15 14:20 240 11 5.4 6.0
2014-Apr-15 13:50 270 9 5.4 5.0
2014-Apr-15 13:20 280 10 5.4 5.0
2014-Apr-15 12:50 280 9 5.4 5.0
2014-Apr-15 12:20 280 10 5.4 4.0